Map

Track Data

SID SEASON NUMBER BASIN SUBBASIN NAME ISO_TIME NATURE LAT LON WMO_WIND WMO_PRES WMO_AGENCY TRACK_TYPE DIST2LAND LANDFALL IFLAG USA_AGENCY USA_ATCF_ID USA_LAT USA_LON USA_RECORD USA_STATUS USA_WIND USA_PRES USA_SSHS USA_R34_NE USA_R34_SE USA_R34_SW USA_R34_NW USA_R50_NE USA_R50_SE USA_R50_SW USA_R50_NW USA_R64_NE USA_R64_SE USA_R64_SW USA_R64_NW USA_POCI USA_ROCI USA_RMW USA_EYE TOKYO_LAT TOKYO_LON TOKYO_GRADE TOKYO_WIND TOKYO_PRES TOKYO_R50_DIR TOKYO_R50_LONG TOKYO_R50_SHORT TOKYO_R30_DIR TOKYO_R30_LONG TOKYO_R30_SHORT TOKYO_LAND CMA_LAT CMA_LON CMA_CAT CMA_WIND CMA_PRES HKO_LAT HKO_LON HKO_CAT HKO_WIND HKO_PRES NEWDELHI_LAT NEWDELHI_LON NEWDELHI_GRADE NEWDELHI_WIND NEWDELHI_PRES NEWDELHI_CI NEWDELHI_DP NEWDELHI_POCI REUNION_LAT REUNION_LON REUNION_TYPE REUNION_WIND REUNION_PRES REUNION_TNUM REUNION_CI REUNION_RMW REUNION_R34_NE REUNION_R34_SE REUNION_R34_SW REUNION_R34_NW REUNION_R50_NE REUNION_R50_SE REUNION_R50_SW REUNION_R50_NW REUNION_R64_NE REUNION_R64_SE REUNION_R64_SW REUNION_R64_NW BOM_LAT BOM_LON BOM_TYPE BOM_WIND BOM_PRES BOM_TNUM BOM_CI BOM_RMW BOM_R34_NE BOM_R34_SE BOM_R34_SW BOM_R34_NW BOM_R50_NE BOM_R50_SE BOM_R50_SW BOM_R50_NW BOM_R64_NE BOM_R64_SE BOM_R64_SW BOM_R64_NW BOM_ROCI BOM_POCI BOM_EYE BOM_POS_METHOD BOM_PRES_METHOD NADI_LAT NADI_LON NADI_CAT NADI_WIND NADI_PRES WELLINGTON_LAT WELLINGTON_LON WELLINGTON_WIND WELLINGTON_PRES DS824_LAT DS824_LON DS824_STAGE DS824_WIND DS824_PRES TD9636_LAT TD9636_LON TD9636_STAGE TD9636_WIND TD9636_PRES TD9635_LAT TD9635_LON TD9635_WIND TD9635_PRES TD9635_ROCI NEUMANN_LAT NEUMANN_LON NEUMANN_CLASS NEUMANN_WIND NEUMANN_PRES MLC_LAT MLC_LON MLC_CLASS MLC_WIND MLC_PRES USA_GUST BOM_GUST BOM_GUST_PER REUNION_GUST REUNION_GUST_PER USA_SEAHGT USA_SEARAD_NE USA_SEARAD_SE USA_SEARAD_SW USA_SEARAD_NW STORM_SPEED STORM_DIR
1945188N20089 1945 32 NI BB NOT_NAMED 1945-07-06 18:00:00 TS 19.5000 89.1000 main 234 212 O________O____ jtwc_io IO041945 19.5000 89.1000 -1 19.5000 89.1000 TC 3 345
1945188N20089 1945 32 NI BB NOT_NAMED 1945-07-06 21:00:00 TS 19.6625 89.0575 main 212 201 P________P____ IO041945 19.6625 89.0575 -1 19.6625 89.0575 TC 3 343
1945188N20089 1945 32 NI BB NOT_NAMED 1945-07-07 00:00:00 TS 19.8000 89.0000 main 201 190 O________O____ jtwc_io IO041945 19.8000 89.0000 -1 19.8000 89.0000 TC 25 3 330
1945188N20089 1945 32 NI BB NOT_NAMED 1945-07-07 03:00:00 TS 19.9000 88.9133 main 190 178 P________PO___ IO041945 19.9000 88.9150 -1 19.9000 88.9150 TC 25 19.9000 88.9000 1 3 317
1945188N20089 1945 32 NI BB NOT_NAMED 1945-07-07 06:00:00 TS 20.0085 88.7947 main 179 169 O________OP___ jtwc_io IO041945 20.0000 88.8000 -1 20.0000 88.8000 TC 25 20.0423 88.7736 1 4 315
1945188N20089 1945 32 NI BB NOT_NAMED 1945-07-07 09:00:00 TS 20.1494 88.6494 main 168 145 P________PP___ IO041945 20.1350 88.6500 -1 20.1350 88.6500 TC 25 20.1876 88.6476 1 4 319
1945188N20089 1945 32 NI BB NOT_NAMED 1945-07-07 12:00:00 TS 20.3130 88.5076 main 145 123 O________OP___ jtwc_io IO041945 20.3000 88.5000 -1 20.3000 88.5000 TC 25 20.3391 88.5229 1 4 326
1945188N20089 1945 32 NI BB NOT_NAMED 1945-07-07 15:00:00 TS 20.5000 88.4000 main 123 100 P________PO___ IO041945 20.5000 88.4000 -1 20.5000 88.4000 TC 25 20.5000 88.4000 1 4 332
1945188N20089 1945 32 NI BB NOT_NAMED 1945-07-07 18:00:00 TS 20.6901 88.2930 main 100 89 O________OP___ jtwc_io IO041945 20.7000 88.3000 -1 20.7000 88.3000 TC 25 20.6703 88.2791 1 4 327
1945188N20089 1945 32 NI BB NOT_NAMED 1945-07-07 21:00:00 TS 20.8558 88.1525 main 78 67 P________PP___ IO041945 20.8650 88.1500 -1 20.8650 88.1500 TC 30 20.8374 88.1576 1 4 319
1945188N20089 1945 32 NI BB NOT_NAMED 1945-07-08 00:00:00 TS 20.9953 88.0107 main 70 59 O________OP___ jtwc_io IO041945 21.0000 88.0000 -1 21.0000 88.0000 TC 35 20.9859 88.0323 1 3 318
1945188N20089 1945 32 NI BB NOT_NAMED 1945-07-08 03:00:00 TS 21.1150 87.9050 main 63 54 P________PO___ IO041945 21.1224 87.9075 -1 21.1224 87.9075 TC 35 21.1000 87.9000 2 3 312
1945188N20089 1945 32 NI BB NOT_NAMED 1945-07-08 06:00:00 TS 21.1870 87.7843 main 55 49 O________OP___ jtwc_io IO041945 21.2000 87.8000 -1 21.2000 87.8000 TC 35 21.1609 87.7530 2 3 288
1945188N20089 1945 32 NI BB NOT_NAMED 1945-07-08 09:00:00 TS 21.2059 87.5999 main 49 44 P________PP___ IO041945 21.2151 87.6000 -1 21.2151 87.6000 TC 35 21.1875 87.5998 2 3 272
1945188N20089 1945 32 NI BB NOT_NAMED 1945-07-08 12:00:00 TS 21.1984 87.4156 main 44 38 O________OP___ jtwc_io IO041945 21.2000 87.4000 -1 21.2000 87.4000 TC 35 21.1953 87.4467 2 3 268
1945188N20089 1945 32 NI BB NOT_NAMED 1945-07-08 15:00:00 TS 21.1950 87.2950 main 38 30 P________PO___ IO041945 21.1924 87.2925 -1 21.1924 87.2925 TC 35 21.2000 87.3000 3 2 272
1945188N20089 1945 32 NI BB NOT_NAMED 1945-07-08 18:00:00 TS 21.2056 87.1857 main 30 23 O________OP___ jtwc_io IO041945 21.2000 87.2000 -1 21.2000 87.2000 TC 35 21.2141 87.1642 3 2 281
1945188N20089 1945 32 NI BB NOT_NAMED 1945-07-08 21:00:00 TS 21.2390 87.0533 main 23 0 P________PP___ IO041945 21.2401 87.0650 -1 21.2401 87.0650 TC 30 21.2375 87.0376 3 3 287
1945188N20089 1945 32 NI BB NOT_NAMED 1945-07-09 00:00:00 TS 21.2836 86.9086 main 0 0 O________OP___ jtwc_io IO041945 21.3000 86.9000 -1 21.3000 86.9000 TC 25 21.2672 86.9173 3 2 284
1945188N20089 1945 32 NI BB NOT_NAMED 1945-07-09 03:00:00 NR 21.3000 86.8000 main 0 __________O___ IO041945 -1 TC 21.3000 86.8000 1 2 279

About IBTrACS Database

This database is a web-friendly format of International Best Track Archive for Climate Stewardship (IBTrACS), a global best track data archive curated by NOAA dating back to 1842.

Updated: 2021-10-19